Time;durP1;ratioP1;P1;durP2;ratioP2;P2;SDS_P1;SDS_P2;PMS_P1;PMS_P2;Temp;Humidity;BMP_temperature;BMP_pressure;BME280_temperature;BME280_humidity;BME280_pressure;Samples;Min_cycle;Max_cycle;Signal;HPM_P1;HPM_P2
2021/10/25 00:01:07;;;;;;;5.40;4.67;;;9.10;99.90;;;;;;5018359;28;20934;-44
2021/10/25 00:03:33;;;;;;;4.80;4.10;;;9.30;99.90;;;;;;5026311;28;20607;-45
2021/10/25 00:05:59;;;;;;;7.63;5.07;;;9.30;99.90;;;;;;5027956;28;20568;-46
2021/10/25 00:08:25;;;;;;;5.60;4.30;;;9.10;99.90;;;;;;5027722;28;20429;-50
2021/10/25 00:10:50;;;;;;;4.67;4.10;;;9.10;99.90;;;;;;5027320;28;20190;-44
2021/10/25 00:13:16;;;;;;;6.57;4.47;;;8.90;99.90;;;;;;5025524;28;20623;-46
2021/10/25 00:15:42;;;;;;;5.20;4.40;;;8.80;99.90;;;;;;5036129;28;20187;-45
2021/10/25 00:18:08;;;;;;;4.13;3.77;;;8.70;99.90;;;;;;5023508;28;20479;-46
2021/10/25 00:20:34;;;;;;;6.20;4.83;;;8.70;99.90;;;;;;5027336;28;20206;-47
2021/10/25 00:23:01;;;;;;;10.63;4.30;;;8.60;99.90;;;;;;5027085;28;20612;-47
2021/10/25 00:25:27;;;;;;;5.50;4.80;;;8.90;99.90;;;;;;5026659;28;20425;-44
2021/10/25 00:27:52;;;;;;;6.70;5.23;;;8.80;99.90;;;;;;5027620;28;20479;-44
2021/10/25 00:30:18;;;;;;;5.13;4.63;;;8.70;99.90;;;;;;5025740;28;20182;-44
2021/10/25 00:32:44;;;;;;;6.07;4.73;;;8.60;99.90;;;;;;5019379;28;20187;-46
2021/10/25 00:35:09;;;;;;;6.70;5.30;;;8.60;99.90;;;;;;5027259;28;20185;-44
2021/10/25 00:37:35;;;;;;;5.97;4.70;;;8.60;99.90;;;;;;5027595;28;20282;-44
2021/10/25 00:40:01;;;;;;;5.13;4.73;;;9.00;99.90;;;;;;5026694;28;20210;-45
2021/10/25 00:42:26;;;;;;;7.03;4.97;;;8.80;99.90;;;;;;5027371;28;20301;-45
2021/10/25 00:44:52;;;;;;;5.67;5.07;;;8.80;99.90;;;;;;5026569;28;20190;-44
2021/10/25 00:47:18;;;;;;;5.20;4.50;;;8.90;99.90;;;;;;5013513;28;20278;-45
2021/10/25 00:49:44;;;;;;;5.93;4.30;;;8.80;99.90;;;;;;5025524;28;20214;-46
2021/10/25 00:52:10;;;;;;;9.27;4.47;;;8.80;99.90;;;;;;5030572;28;20723;-44
2021/10/25 00:54:36;;;;;;;5.60;4.73;;;8.80;99.90;;;;;;5024498;28;20736;-45
2021/10/25 00:57:03;;;;;;;4.27;3.47;;;8.90;99.90;;;;;;5026828;28;20495;-46
2021/10/25 00:59:31;;;;;;;5.30;4.13;;;8.60;99.90;;;;;;5026705;28;21001;-46
2021/10/25 01:01:57;;;;;;;7.70;4.07;;;8.90;99.90;;;;;;5014392;28;20522;-44
2021/10/25 01:04:23;;;;;;;4.87;4.33;;;8.50;99.90;;;;;;5023950;28;20930;-44
2021/10/25 01:06:48;;;;;;;5.13;4.63;;;8.60;99.90;;;;;;5025533;28;20194;-45
2021/10/25 01:09:16;;;;;;;6.20;4.33;;;8.70;99.90;;;;;;5026509;28;21257;-44
2021/10/25 01:11:42;;;;;;;4.77;4.17;;;8.60;99.90;;;;;;5024866;28;20201;-44
2021/10/25 01:14:08;;;;;;;4.53;4.00;;;8.90;99.90;;;;;;5031090;28;20440;-48
2021/10/25 01:16:34;;;;;;;6.60;4.40;;;8.60;99.90;;;;;;5030544;28;20500;-46
2021/10/25 01:19:00;;;;;;;4.80;4.30;;;8.60;99.90;;;;;;5025483;28;20926;-45
2021/10/25 01:21:26;;;;;;;5.90;4.70;;;8.50;99.90;;;;;;5026430;28;20655;-45
2021/10/25 01:23:53;;;;;;;5.50;4.70;;;8.40;99.90;;;;;;5025771;28;20471;-45
2021/10/25 01:26:21;;;;;;;5.83;4.10;;;8.60;99.90;;;;;;5026390;28;20421;-47
2021/10/25 01:28:48;;;;;;;6.67;4.50;;;8.50;99.90;;;;;;5026039;28;20429;-44
2021/10/25 01:31:16;;;;;;;4.50;4.07;;;8.30;99.90;;;;;;5020957;28;20554;-44
2021/10/25 01:33:45;;;;;;;4.47;3.97;;;8.50;99.90;;;;;;5020909;28;20440;-45
2021/10/25 01:36:11;;;;;;;6.50;4.40;;;8.40;99.90;;;;;;5025799;28;20444;-47
2021/10/25 01:38:36;;;;;;;4.90;4.10;;;8.50;99.90;;;;;;5026113;28;21311;-46
2021/10/25 01:41:02;;;;;;;5.37;4.50;;;8.20;99.90;;;;;;5026281;28;20441;-44
2021/10/25 01:43:28;;;;;;;5.60;4.70;;;8.30;99.90;;;;;;5025418;28;20193;-44
2021/10/25 01:45:54;;;;;;;4.83;4.33;;;8.40;99.90;;;;;;5023856;28;20194;-44
2021/10/25 01:48:19;;;;;;;5.33;3.97;;;8.40;99.90;;;;;;5021103;28;20278;-45
2021/10/25 01:50:45;;;;;;;5.03;3.93;;;8.30;99.90;;;;;;5026048;28;20216;-44
2021/10/25 01:53:11;;;;;;;5.00;4.60;;;8.20;99.90;;;;;;5025356;28;20194;-47
2021/10/25 01:55:36;;;;;;;6.73;4.57;;;8.40;99.90;;;;;;5025939;28;20281;-45
2021/10/25 01:58:04;;;;;;;4.90;4.10;;;8.20;99.90;;;;;;5025817;28;20281;-45
2021/10/25 02:00:30;;;;;;;7.13;4.80;;;8.20;99.90;;;;;;5025597;28;20421;-47
2021/10/25 02:02:55;;;;;;;4.97;4.50;;;8.10;99.90;;;;;;5014893;28;20443;-46
2021/10/25 02:05:21;;;;;;;4.60;4.10;;;8.20;99.90;;;;;;5025269;28;20186;-44
2021/10/25 02:07:47;;;;;;;6.83;4.67;;;8.10;99.90;;;;;;5024666;28;20194;-45
2021/10/25 02:10:13;;;;;;;6.17;4.23;;;8.00;99.90;;;;;;5025586;28;20204;-45
2021/10/25 02:12:39;;;;;;;6.53;4.43;;;8.10;99.90;;;;;;5023919;28;20532;-44
2021/10/25 02:15:05;;;;;;;4.77;4.23;;;8.00;99.90;;;;;;5040473;28;20185;-45
2021/10/25 02:17:32;;;;;;;4.30;3.90;;;8.00;99.90;;;;;;5028766;28;20580;-45
2021/10/25 02:19:57;;;;;;;3.93;3.60;;;8.00;99.90;;;;;;5028018;28;20457;-44
2021/10/25 02:22:23;;;;;;;5.17;4.40;;;7.70;99.90;;;;;;5029803;28;20474;-45
2021/10/25 02:24:50;;;;;;;6.57;4.00;;;7.80;99.90;;;;;;5029332;28;20274;-44
2021/10/25 02:27:15;;;;;;;5.30;4.30;;;7.90;99.90;;;;;;5029786;28;20294;-44
2021/10/25 02:29:42;;;;;;;5.43;4.50;;;7.80;99.90;;;;;;5029593;28;20872;-44
2021/10/25 02:32:09;;;;;;;5.00;4.60;;;8.00;99.90;;;;;;5023039;28;20564;-44
2021/10/25 02:34:35;;;;;;;4.80;4.20;;;7.80;99.90;;;;;;5028078;28;20941;-44
2021/10/25 02:37:03;;;;;;;5.20;3.73;;;7.70;99.90;;;;;;5029148;28;20471;-45
2021/10/25 02:39:29;;;;;;;6.50;4.60;;;7.70;99.90;;;;;;5029531;28;20468;-44
2021/10/25 02:41:56;;;;;;;6.13;4.00;;;7.70;99.90;;;;;;5029181;28;20919;-46
2021/10/25 02:44:23;;;;;;;5.83;3.97;;;7.50;99.90;;;;;;5028931;28;20425;-44
2021/10/25 02:46:49;;;;;;;5.57;4.10;;;7.60;99.90;;;;;;5022031;28;20521;-47
2021/10/25 02:49:15;;;;;;;5.40;4.90;;;7.50;99.90;;;;;;5025663;28;20527;-48
2021/10/25 02:51:41;;;;;;;4.60;4.20;;;7.50;99.90;;;;;;5029112;28;20451;-44
2021/10/25 02:54:06;;;;;;;5.77;4.60;;;7.60;99.90;;;;;;5028763;28;20441;-45
2021/10/25 02:56:32;;;;;;;4.33;3.63;;;7.80;99.90;;;;;;5029077;28;20205;-45
2021/10/25 02:58:58;;;;;;;6.97;3.53;;;7.40;99.90;;;;;;5029110;28;20209;-44
2021/10/25 03:01:23;;;;;;;7.47;4.87;;;7.80;99.90;;;;;;5026964;28;20207;-45
2021/10/25 03:03:49;;;;;;;5.10;4.17;;;7.50;99.90;;;;;;5014315;28;20190;-46
2021/10/25 03:06:15;;;;;;;5.20;4.70;;;7.50;99.90;;;;;;5028857;28;20222;-46
2021/10/25 03:08:40;;;;;;;5.67;5.00;;;7.70;99.90;;;;;;5029044;28;20289;-49
2021/10/25 03:11:07;;;;;;;5.63;4.53;;;7.50;99.90;;;;;;5028844;28;20277;-46
2021/10/25 03:13:32;;;;;;;7.53;4.43;;;7.80;99.90;;;;;;5027462;28;20189;-44
2021/10/25 03:15:59;;;;;;;5.50;5.00;;;7.60;99.90;;;;;;5048788;28;20428;-45
2021/10/25 03:18:25;;;;;;;5.23;4.40;;;7.60;99.90;;;;;;5016432;28;20473;-46
2021/10/25 03:20:51;;;;;;;4.60;4.20;;;7.70;99.90;;;;;;5028590;28;20479;-45
2021/10/25 03:23:17;;;;;;;5.60;5.10;;;7.60;99.90;;;;;;5028043;28;20912;-44
2021/10/25 03:25:43;;;;;;;5.80;4.90;;;7.40;99.90;;;;;;5027635;28;20429;-44
2021/10/25 03:28:09;;;;;;;5.90;5.10;;;7.40;99.90;;;;;;5028723;28;20604;-45
2021/10/25 03:30:35;;;;;;;6.30;4.77;;;7.60;99.90;;;;;;5027511;28;20549;-45
2021/10/25 03:33:01;;;;;;;7.33;4.57;;;7.70;99.90;;;;;;5016995;28;20449;-44
2021/10/25 03:35:27;;;;;;;4.80;4.30;;;7.60;99.90;;;;;;5028303;28;20421;-44
2021/10/25 03:37:55;;;;;;;5.77;4.90;;;7.60;99.90;;;;;;5028307;28;20421;-44
2021/10/25 03:40:21;;;;;;;9.30;5.30;;;7.40;99.90;;;;;;5028635;28;20427;-49
2021/10/25 03:42:50;;;;;;;6.30;5.70;;;7.50;99.90;;;;;;5027787;28;20417;-48
2021/10/25 03:45:20;;;;;;;4.93;4.20;;;7.40;99.90;;;;;;5028322;28;20188;-44
2021/10/25 03:50:15;;;;;;;4.73;4.30;;;7.40;99.90;;;;;;5024425;28;20421;-45
2021/10/25 04:30:32;;;;;;;5.70;5.17;;;7.40;99.90;;;;;;5027497;28;20436;-46
2021/10/25 04:32:58;;;;;;;5.27;4.27;;;7.60;99.90;;;;;;5017186;28;20850;-45
2021/10/25 04:35:24;;;;;;;5.17;4.70;;;7.60;99.90;;;;;;5026783;28;20433;-45
2021/10/25 04:37:50;;;;;;;5.67;5.00;;;7.50;99.90;;;;;;5026696;28;20447;-50
2021/10/25 04:40:16;;;;;;;6.33;4.43;;;7.50;99.90;;;;;;5027020;28;20222;-44
2021/10/25 04:42:41;;;;;;;5.20;4.27;;;7.70;99.90;;;;;;5022589;28;21054;-44
2021/10/25 04:45:07;;;;;;;6.07;4.23;;;7.50;99.90;;;;;;5022279;28;20190;-44
2021/10/25 04:47:33;;;;;;;5.53;4.03;;;7.10;99.90;;;;;;5022501;28;20716;-44
2021/10/25 04:49:59;;;;;;;5.27;4.77;;;7.20;99.90;;;;;;5025897;28;20425;-45
2021/10/25 04:52:27;;;;;;;5.60;4.20;;;7.10;99.90;;;;;;5026942;28;20448;-47
2021/10/25 04:54:52;;;;;;;6.43;4.83;;;7.40;99.90;;;;;;5026293;28;20417;-44
2021/10/25 04:57:18;;;;;;;4.80;4.30;;;7.20;99.90;;;;;;5026782;28;20445;-45
2021/10/25 04:59:44;;;;;;;6.20;4.83;;;7.40;99.90;;;;;;5027061;28;20301;-45
2021/10/25 05:02:09;;;;;;;4.40;4.00;;;7.40;99.90;;;;;;5025398;28;20191;-44
2021/10/25 05:04:35;;;;;;;5.83;4.90;;;7.70;99.90;;;;;;5017490;28;20182;-46
2021/10/25 05:07:01;;;;;;;4.97;4.53;;;7.60;99.90;;;;;;5026633;28;20182;-47
2021/10/25 05:09:26;;;;;;;5.67;4.60;;;7.80;99.90;;;;;;5026853;28;20193;-44
2021/10/25 05:11:53;;;;;;;6.17;4.60;;;7.90;99.90;;;;;;5025728;28;20504;-47
2021/10/25 05:14:18;;;;;;;7.10;5.40;;;7.80;99.90;;;;;;5032977;28;20696;-48
2021/10/25 05:16:44;;;;;;;5.37;4.87;;;7.60;99.90;;;;;;5044962;28;20448;-44
2021/10/25 05:19:10;;;;;;;9.13;4.77;;;7.80;99.90;;;;;;5019702;28;20202;-45
2021/10/25 05:21:36;;;;;;;5.23;4.07;;;7.80;99.90;;;;;;5026828;28;20183;-47
2021/10/25 05:24:03;;;;;;;4.43;4.03;;;7.40;99.90;;;;;;5025526;28;20974;-46
2021/10/25 05:26:29;;;;;;;6.53;4.60;;;7.30;99.90;;;;;;5026054;28;20194;-48
2021/10/25 05:28:55;;;;;;;6.40;5.50;;;7.20;99.90;;;;;;5026203;28;20492;-45
2021/10/25 05:31:21;;;;;;;5.07;4.57;;;7.30;99.90;;;;;;5025088;28;20437;-45
2021/10/25 05:33:47;;;;;;;5.30;4.37;;;7.60;99.90;;;;;;5014690;28;20989;-44
2021/10/25 05:36:13;;;;;;;5.13;4.70;;;7.70;99.90;;;;;;5022997;28;20201;-45
2021/10/25 05:38:39;;;;;;;7.80;4.77;;;7.80;99.90;;;;;;5025681;28;20708;-45
2021/10/25 05:41:05;;;;;;;5.30;4.80;;;7.60;99.90;;;;;;5026297;28;20421;-44
2021/10/25 05:43:31;;;;;;;5.43;4.93;;;7.90;99.90;;;;;;5025268;28;20417;-45
2021/10/25 05:45:58;;;;;;;7.30;4.67;;;8.10;99.90;;;;;;5026164;28;20838;-47
2021/10/25 05:48:24;;;;;;;5.70;4.70;;;7.90;99.90;;;;;;5017921;28;20450;-47
2021/10/25 05:50:51;;;;;;;6.00;4.43;;;8.00;99.90;;;;;;5019447;28;20459;-47
2021/10/25 05:53:17;;;;;;;6.20;4.80;;;7.80;99.90;;;;;;5022029;28;20174;-44
2021/10/25 05:55:45;;;;;;;7.37;5.20;;;7.90;99.90;;;;;;5025560;28;20433;-45
2021/10/25 05:58:17;;;;;;;5.47;4.30;;;8.10;99.90;;;;;;5025769;28;20842;-46
2021/10/25 06:00:47;;;;;;;4.97;4.47;;;8.10;99.90;;;;;;5025630;28;20428;-44
2021/10/25 06:03:17;;;;;;;5.10;4.43;;;8.20;99.90;;;;;;5021626;28;20937;-47
2021/10/25 06:05:43;;;;;;;5.50;4.70;;;8.20;99.90;;;;;;5023713;28;20540;-44
2021/10/25 06:08:10;;;;;;;5.27;4.73;;;8.10;99.90;;;;;;5024960;28;20988;-46
2021/10/25 06:10:36;;;;;;;7.53;4.20;;;8.30;99.90;;;;;;5024137;28;20240;-44
2021/10/25 06:13:05;;;;;;;5.07;4.57;;;8.20;99.90;;;;;;5022588;28;20418;-44
2021/10/25 06:15:38;;;;;;;7.40;4.50;;;8.30;99.90;;;;;;5042381;28;20184;-44
2021/10/25 06:18:08;;;;;;;5.10;4.43;;;8.20;99.90;;;;;;5037178;28;20438;-44
2021/10/25 06:20:37;;;;;;;5.57;4.53;;;8.20;99.90;;;;;;5023259;28;20449;-44
2021/10/25 06:23:11;;;;;;;5.03;4.57;;;8.20;99.90;;;;;;5022539;28;20935;-44
2021/10/25 06:25:38;;;;;;;5.70;4.60;;;8.00;99.90;;;;;;5025988;28;21040;-44
2021/10/25 06:28:04;;;;;;;7.10;4.60;;;8.00;99.90;;;;;;5025273;28;20440;-45
2021/10/25 06:30:29;;;;;;;6.30;4.47;;;8.00;99.90;;;;;;5026890;28;20782;-45
2021/10/25 06:32:56;;;;;;;5.33;4.37;;;8.10;99.90;;;;;;5024650;28;20417;-45
2021/10/25 06:35:25;;;;;;;5.33;4.47;;;8.30;99.90;;;;;;5022002;28;20193;-46
2021/10/25 06:37:59;;;;;;;5.50;4.30;;;8.30;99.90;;;;;;5025413;28;20445;-47
2021/10/25 06:40:27;;;;;;;5.20;3.87;;;8.20;99.90;;;;;;5025067;28;20436;-46
2021/10/25 06:42:54;;;;;;;5.27;4.77;;;8.20;99.90;;;;;;5023573;28;20436;-45
2021/10/25 06:45:21;;;;;;;7.47;4.90;;;8.10;99.90;;;;;;5025747;28;20421;-49
2021/10/25 06:47:49;;;;;;;6.50;4.60;;;8.10;99.90;;;;;;5024080;28;20429;-46
2021/10/25 06:50:18;;;;;;;5.40;4.80;;;8.40;99.90;;;;;;5015198;28;20861;-44
2021/10/25 06:52:44;;;;;;;5.47;4.83;;;8.20;99.90;;;;;;5024272;28;20923;-44
2021/10/25 06:55:10;;;;;;;5.03;4.53;;;8.20;99.90;;;;;;5025016;28;20421;-46
2021/10/25 06:57:36;;;;;;;5.87;4.93;;;8.00;99.90;;;;;;5025338;28;20429;-46
2021/10/25 07:00:05;;;;;;;5.60;4.90;;;8.30;99.90;;;;;;5026079;28;20477;-45
2021/10/25 07:02:31;;;;;;;5.77;5.07;;;8.20;99.90;;;;;;5029029;28;20524;-44
2021/10/25 07:04:57;;;;;;;5.67;4.67;;;8.10;99.90;;;;;;5022482;28;20520;-48
2021/10/25 07:07:25;;;;;;;5.67;4.63;;;8.30;99.90;;;;;;5028497;28;20281;-45
2021/10/25 07:09:52;;;;;;;5.40;4.90;;;8.40;99.90;;;;;;5028866;28;20274;-45
2021/10/25 07:12:18;;;;;;;5.43;4.93;;;8.00;99.90;;;;;;5026906;28;20429;-44
2021/10/25 07:14:44;;;;;;;7.50;5.20;;;8.30;99.90;;;;;;5039391;28;20926;-44
2021/10/25 07:17:19;;;;;;;5.80;4.80;;;8.00;99.90;;;;;;5048435;28;20271;-45
2021/10/25 07:28:00;;;;;;;5.53;4.43;;;8.70;99.90;;;;;;5028611;28;20536;-45
2021/10/25 08:06:08;;;;;;;4.80;3.80;;;11.60;99.90;;;;;;5013281;28;20425;-44
2021/10/25 08:08:53;;;;;;;7.03;4.33;;;11.60;99.90;;;;;;5027705;28;20433;-48
2021/10/25 08:11:21;;;;;;;7.30;4.57;;;11.80;99.90;;;;;;5017117;28;20874;-46
2021/10/25 08:13:48;;;;;;;6.27;4.97;;;11.90;99.90;;;;;;5027547;28;20452;-45
2021/10/25 08:16:23;;;;;;;6.13;4.60;;;12.10;99.90;;;;;;5047245;28;20424;-45
2021/10/25 08:21:20;;;;;;;5.07;4.10;;;12.40;99.90;;;;;;5020243;28;20541;-45
2021/10/25 08:23:47;;;;;;;6.10;3.73;;;12.50;99.90;;;;;;5027134;28;20463;-45
2021/10/25 08:26:12;;;;;;;5.20;3.90;;;12.70;99.90;;;;;;5027816;28;20935;-46
2021/10/25 08:28:39;;;;;;;4.33;3.90;;;12.90;99.90;;;;;;5027190;28;20474;-46
2021/10/25 08:31:07;;;;;;;4.97;4.07;;;13.00;99.90;;;;;;5027439;28;20202;-45
2021/10/25 08:41:24;;;;;;;6.57;4.60;;;13.50;99.90;;;;;;5026706;28;20520;-46
2021/10/25 08:43:52;;;;;;;4.60;2.70;;;13.60;99.90;;;;;;5026595;28;20548;-46
2021/10/25 08:46:18;;;;;;;5.53;2.83;;;13.80;99.90;;;;;;5026989;28;20755;-47
2021/10/25 08:48:44;;;;;;;4.17;3.57;;;14.00;99.90;;;;;;5025101;28;20425;-46
2021/10/25 08:51:11;;;;;;;4.77;3.73;;;14.10;99.90;;;;;;5024257;28;20416;-47
2021/10/25 08:53:37;;;;;;;4.53;3.30;;;14.30;99.90;;;;;;5025808;28;20901;-46
2021/10/25 08:56:04;;;;;;;4.77;3.30;;;14.40;99.90;;;;;;5025444;28;20532;-47
2021/10/25 08:58:34;;;;;;;4.97;3.43;;;14.60;99.90;;;;;;5026861;28;20293;-47
2021/10/25 09:01:00;;;;;;;5.10;3.33;;;14.70;99.90;;;;;;5026948;28;20425;-47
2021/10/25 09:03:26;;;;;;;4.03;2.90;;;14.90;99.90;;;;;;5026235;28;20931;-45
2021/10/25 09:05:58;;;;;;;5.07;3.03;;;15.10;99.90;;;;;;5016171;28;20187;-46
2021/10/25 09:08:25;;;;;;;3.10;2.60;;;15.20;99.90;;;;;;5023128;28;20560;-45
2021/10/25 09:10:52;;;;;;;3.50;3.20;;;15.30;99.90;;;;;;5026971;28;20429;-47
2021/10/25 09:13:23;;;;;;;4.30;2.93;;;15.50;99.90;;;;;;5024057;28;20417;-46
2021/10/25 09:15:57;;;;;;;4.80;3.20;;;15.70;99.90;;;;;;5046154;28;20428;-48
2021/10/25 09:18:26;;;;;;;4.80;3.10;;;16.00;99.90;;;;;;5045964;28;20439;-48
2021/10/25 09:20:59;;;;;;;4.73;2.80;;;16.10;99.60;;;;;;5025758;28;20884;-46
2021/10/25 09:23:28;;;;;;;4.30;2.57;;;16.20;99.40;;;;;;5023031;28;20447;-48
2021/10/25 09:26:00;;;;;;;4.07;3.00;;;16.30;99.30;;;;;;5026498;28;20755;-46
2021/10/25 09:28:29;;;;;;;3.33;2.60;;;16.30;99.00;;;;;;5026221;28;20429;-45
2021/10/25 09:30:59;;;;;;;3.97;2.30;;;16.40;98.20;;;;;;5026971;28;20433;-45
2021/10/25 09:33:32;;;;;;;4.70;2.60;;;16.60;98.40;;;;;;5025110;28;20437;-48
2021/10/25 09:36:03;;;;;;;3.40;2.63;;;16.70;97.80;;;;;;5017642;28;20804;-46
2021/10/25 09:38:37;;;;;;;2.40;2.20;;;16.90;98.20;;;;;;5025262;28;20464;-44
2021/10/25 09:49:57;;;;;;;2.60;2.30;;;17.20;97.10;;;;;;5023912;28;20421;-46
2021/10/25 09:52:29;;;;;;;3.00;2.40;;;17.30;97.40;;;;;;5019968;28;20784;-45
2021/10/25 09:55:09;;;;;;;2.23;2.03;;;17.20;97.60;;;;;;5025187;28;20433;-46
2021/10/25 09:57:42;;;;;;;3.07;2.37;;;17.20;97.40;;;;;;5026084;28;20436;-45
2021/10/25 10:00:09;;;;;;;3.33;2.50;;;17.00;97.60;;;;;;5025674;28;20507;-46
2021/10/25 10:02:37;;;;;;;6.57;2.60;;;17.00;97.20;;;;;;5024307;28;20871;-48
2021/10/25 10:05:05;;;;;;;5.83;2.93;;;17.00;97.00;;;;;;5025438;28;20479;-45
2021/10/25 10:07:35;;;;;;;3.63;2.00;;;17.20;97.60;;;;;;5018672;28;20437;-45
2021/10/25 10:10:02;;;;;;;4.27;2.60;;;17.20;97.80;;;;;;5025672;28;20503;-47
2021/10/25 10:12:28;;;;;;;2.97;2.40;;;17.10;96.90;;;;;;5024304;28;20444;-49
2021/10/25 10:14:59;;;;;;;2.67;2.30;;;16.80;97.30;;;;;;5027605;28;20441;-45
2021/10/25 10:17:32;;;;;;;3.20;2.90;;;16.70;97.80;;;;;;5045153;28;20435;-46
2021/10/25 10:20:04;;;;;;;3.93;2.20;;;16.40;97.70;;;;;;5045514;28;20549;-45
2021/10/25 10:22:33;;;;;;;4.03;2.33;;;16.20;98.20;;;;;;5020452;28;20455;-46
2021/10/25 10:24:59;;;;;;;4.83;2.70;;;16.10;98.60;;;;;;5019406;28;20512;-46
2021/10/25 10:27:24;;;;;;;3.53;2.53;;;16.00;99.00;;;;;;5025443;28;20539;-47
2021/10/25 10:29:54;;;;;;;3.33;2.53;;;15.90;99.20;;;;;;5024317;28;20433;-46
2021/10/25 10:32:21;;;;;;;3.30;2.33;;;15.90;99.60;;;;;;5024426;28;20478;-47
2021/10/25 10:34:50;;;;;;;4.33;2.30;;;15.80;99.50;;;;;;5025260;28;20429;-45
2021/10/25 10:37:26;;;;;;;6.70;2.53;;;15.70;99.90;;;;;;5018228;28;20524;-45
2021/10/25 10:40:06;;;;;;;5.83;2.37;;;15.60;99.90;;;;;;5028857;28;20996;-45
2021/10/25 10:42:33;;;;;;;3.07;2.73;;;15.50;99.90;;;;;;5030229;28;20740;-45
2021/10/25 10:45:04;;;;;;;2.80;2.60;;;15.40;99.90;;;;;;5028896;28;20806;-47
2021/10/25 10:47:38;;;;;;;3.20;2.63;;;15.40;99.90;;;;;;5029870;28;20433;-45
2021/10/25 10:50:20;;;;;;;5.50;2.90;;;15.40;99.90;;;;;;5029815;28;20803;-45
2021/10/25 10:52:50;;;;;;;4.17;2.70;;;15.20;99.90;;;;;;5018952;28;20542;-45
2021/10/25 10:55:18;;;;;;;3.43;3.10;;;15.10;99.90;;;;;;5028955;28;20467;-46
2021/10/25 11:00:31;;;;;;;3.30;2.83;;;14.80;99.90;;;;;;5029393;28;20475;-46
2021/10/25 11:03:11;;;;;;;5.10;3.30;;;14.80;99.90;;;;;;5024160;28;20475;-45
2021/10/25 11:06:02;;;;;;;4.73;3.17;;;14.90;99.90;;;;;;5040561;28;20473;-48
2021/10/25 11:08:36;;;;;;;3.40;2.63;;;14.90;99.90;;;;;;5024643;28;20804;-45
2021/10/25 11:11:14;;;;;;;4.33;3.03;;;14.90;99.90;;;;;;5023989;28;20447;-44
2021/10/25 11:13:47;;;;;;;3.20;2.90;;;14.90;99.90;;;;;;5028814;28;20431;-45
2021/10/25 11:16:39;;;;;;;5.30;2.90;;;14.90;99.90;;;;;;5041934;28;20424;-45
2021/10/25 11:19:05;;;;;;;2.83;2.53;;;14.90;99.90;;;;;;5048545;28;20468;-45
2021/10/25 11:21:41;;;;;;;3.43;3.13;;;14.90;99.90;;;;;;5038467;28;20452;-46
2021/10/25 11:24:12;;;;;;;4.10;3.10;;;14.80;99.90;;;;;;5025824;28;20460;-46
2021/10/25 11:26:42;;;;;;;3.10;2.53;;;14.80;99.90;;;;;;5028602;28;20431;-45
2021/10/25 11:29:27;;;;;;;3.67;2.97;;;14.80;99.90;;;;;;5028739;28;20429;-44
2021/10/25 11:31:55;;;;;;;3.10;2.53;;;14.80;99.90;;;;;;5028443;28;20495;-45
2021/10/25 11:34:30;;;;;;;5.00;2.97;;;14.90;99.90;;;;;;5027758;28;20429;-46
2021/10/25 11:37:11;;;;;;;2.57;2.37;;;14.80;99.90;;;;;;5021706;28;20430;-45
2021/10/25 11:39:48;;;;;;;3.63;2.60;;;14.90;99.90;;;;;;5028171;28;20460;-44
2021/10/25 11:42:22;;;;;;;3.10;2.80;;;15.00;99.90;;;;;;5028254;28;20578;-47
2021/10/25 11:45:04;;;;;;;3.43;2.70;;;15.10;99.90;;;;;;5026569;28;20551;-44
2021/10/25 11:47:32;;;;;;;2.60;2.40;;;15.20;99.90;;;;;;5027641;28;20943;-48
2021/10/25 11:50:03;;;;;;;4.47;2.90;;;15.20;99.90;;;;;;5028311;28;20436;-46
2021/10/25 11:52:42;;;;;;;4.60;2.47;;;15.20;99.90;;;;;;5019157;28;20812;-45
2021/10/25 11:55:12;;;;;;;2.90;2.37;;;15.30;99.90;;;;;;5028137;28;20420;-47
2021/10/25 11:57:44;;;;;;;3.57;2.43;;;15.20;99.90;;;;;;5028022;28;20437;-47
2021/10/25 12:00:11;;;;;;;4.50;3.20;;;15.20;99.90;;;;;;5027858;28;20471;-45
2021/10/25 12:02:37;;;;;;;3.50;2.50;;;15.30;99.90;;;;;;5028051;28;20519;-45
2021/10/25 12:05:08;;;;;;;3.20;2.40;;;15.20;99.90;;;;;;5027519;28;20470;-47
2021/10/25 12:07:44;;;;;;;4.50;3.10;;;15.30;99.90;;;;;;5017808;28;20436;-44
2021/10/25 12:10:11;;;;;;;8.37;3.07;;;15.30;99.90;;;;;;5024062;28;20423;-45
2021/10/25 12:12:36;;;;;;;2.97;2.37;;;15.40;99.90;;;;;;5025432;28;20436;-45
2021/10/25 12:15:03;;;;;;;4.73;3.30;;;15.50;99.90;;;;;;5036053;28;20574;-50
2021/10/25 12:17:34;;;;;;;3.30;2.60;;;15.60;99.90;;;;;;5047241;28;20257;-49
2021/10/25 12:20:02;;;;;;;3.03;2.77;;;15.70;99.90;;;;;;5047181;28;20592;-45
2021/10/25 12:22:28;;;;;;;3.30;2.43;;;15.80;99.90;;;;;;5030623;28;20434;-45
2021/10/25 12:24:55;;;;;;;5.27;2.50;;;16.00;99.90;;;;;;5020640;28;20430;-49
2021/10/25 12:27:31;;;;;;;3.67;2.47;;;16.00;99.90;;;;;;5027665;28;20183;-44
2021/10/25 12:30:09;;;;;;;3.77;2.27;;;16.10;99.90;;;;;;5027794;28;20439;-46
2021/10/25 12:32:39;;;;;;;2.50;2.30;;;16.00;99.90;;;;;;5027244;28;20435;-45
2021/10/25 12:35:06;;;;;;;4.17;2.30;;;15.80;99.90;;;;;;5026587;28;20456;-45
2021/10/25 12:37:34;;;;;;;3.00;2.50;;;15.80;99.90;;;;;;5020324;28;20955;-45
2021/10/25 12:40:01;;;;;;;3.13;2.40;;;15.70;99.90;;;;;;5024871;28;20562;-49
2021/10/25 12:42:40;;;;;;;3.10;2.37;;;15.70;99.90;;;;;;5027476;28;20435;-50
2021/10/25 12:45:18;;;;;;;3.20;2.90;;;15.70;99.90;;;;;;5026516;28;20425;-45
2021/10/25 12:47:44;;;;;;;4.03;2.67;;;15.70;99.90;;;;;;5027216;28;20420;-45
2021/10/25 12:50:13;;;;;;;4.63;2.80;;;15.60;99.90;;;;;;5027171;28;20421;-47
2021/10/25 12:52:40;;;;;;;3.20;2.80;;;15.50;99.90;;;;;;5020611;28;20448;-45
2021/10/25 12:55:06;;;;;;;3.27;2.97;;;15.50;99.90;;;;;;5021844;28;20437;-45
2021/10/25 12:57:35;;;;;;;3.67;2.80;;;15.50;99.90;;;;;;5026743;28;20428;-44
2021/10/25 13:00:21;;;;;;;3.47;3.17;;;15.50;99.90;;;;;;5027073;28;20465;-45
2021/10/25 13:02:51;;;;;;;4.50;2.93;;;15.50;99.90;;;;;;5026385;28;20520;-48
2021/10/25 13:05:34;;;;;;;5.80;2.80;;;15.40;99.90;;;;;;5027398;28;20431;-45
2021/10/25 13:08:02;;;;;;;3.10;2.20;;;15.40;99.90;;;;;;5020635;28;20539;-46
2021/10/25 13:10:42;;;;;;;4.87;3.00;;;15.40;99.90;;;;;;5025435;28;21006;-45
2021/10/25 13:13:10;;;;;;;2.53;2.33;;;15.30;99.90;;;;;;5024880;28;20444;-46
2021/10/25 13:15:38;;;;;;;3.03;2.30;;;15.20;99.90;;;;;;5041203;28;20798;-44
2021/10/25 13:18:07;;;;;;;8.67;2.90;;;15.30;99.90;;;;;;5038001;28;20435;-45
2021/10/25 13:20:35;;;;;;;3.20;2.53;;;15.30;99.90;;;;;;5046247;28;20467;-45
2021/10/25 13:23:03;;;;;;;2.63;2.43;;;15.30;99.90;;;;;;5023960;28;20441;-46
2021/10/25 13:25:30;;;;;;;3.50;2.30;;;15.30;99.90;;;;;;5025195;28;20464;-46
2021/10/25 13:27:57;;;;;;;2.83;2.40;;;15.30;99.90;;;;;;5026563;28;20456;-47
2021/10/25 13:30:24;;;;;;;6.00;3.37;;;15.30;99.90;;;;;;5026425;28;20473;-46
2021/10/25 13:32:51;;;;;;;2.87;2.40;;;15.30;99.90;;;;;;5025603;28;20831;-45
2021/10/25 13:35:17;;;;;;;3.90;2.90;;;15.20;99.90;;;;;;5026280;28;20530;-45
2021/10/25 13:37:45;;;;;;;3.10;2.60;;;15.10;99.90;;;;;;5020788;28;20437;-45
2021/10/25 13:40:12;;;;;;;4.63;3.00;;;15.10;99.90;;;;;;5024409;28;20472;-45
2021/10/25 13:42:39;;;;;;;3.20;2.87;;;15.00;99.90;;;;;;5019319;28;20952;-45
2021/10/25 13:45:06;;;;;;;3.50;3.20;;;15.10;99.90;;;;;;5025784;28;20429;-46
2021/10/25 13:47:32;;;;;;;4.47;3.40;;;15.10;99.90;;;;;;5025739;28;20436;-45
2021/10/25 13:49:57;;;;;;;5.07;3.70;;;15.10;99.90;;;;;;5026254;28;20484;-45
2021/10/25 13:52:25;;;;;;;4.40;3.33;;;15.00;99.90;;;;;;5023570;28;20481;-44
2021/10/25 13:54:51;;;;;;;3.10;2.80;;;14.90;99.90;;;;;;5023753;28;20659;-44
2021/10/25 13:57:22;;;;;;;3.73;3.10;;;15.00;99.90;;;;;;5024542;28;20442;-46
2021/10/25 13:59:49;;;;;;;7.70;4.03;;;15.00;99.90;;;;;;5026008;28;20465;-44
2021/10/25 14:02:15;;;;;;;3.60;3.20;;;15.00;99.90;;;;;;5027087;28;21046;-45
2021/10/25 14:04:48;;;;;;;4.50;3.03;;;14.90;99.90;;;;;;5044873;28;20421;-51
2021/10/25 14:07:20;;;;;;;5.50;3.13;;;14.90;99.90;;;;;;5033253;28;20425;-45
2021/10/25 14:09:54;;;;;;;6.03;3.07;;;14.90;99.90;;;;;;5022311;28;20784;-46
2021/10/25 14:12:26;;;;;;;3.73;3.20;;;14.90;99.90;;;;;;5025123;28;20531;-45
2021/10/25 14:14:59;;;;;;;4.67;3.87;;;14.90;99.90;;;;;;5023038;28;20436;-46
2021/10/25 14:17:25;;;;;;;3.23;2.93;;;14.80;99.90;;;;;;5045620;28;20519;-46
2021/10/25 14:19:50;;;;;;;7.17;3.20;;;14.80;99.90;;;;;;5036912;28;20555;-48
2021/10/25 14:22:16;;;;;;;5.60;3.43;;;14.70;99.90;;;;;;5025175;28;20197;-45
2021/10/25 14:24:42;;;;;;;4.80;3.40;;;14.70;99.90;;;;;;5019299;28;20201;-45
2021/10/25 14:27:08;;;;;;;5.30;3.13;;;14.70;99.90;;;;;;5007397;28;20238;-50
2021/10/25 14:29:33;;;;;;;5.23;3.70;;;14.60;99.90;;;;;;5025797;28;20433;-45
2021/10/25 14:31:59;;;;;;;6.37;3.40;;;14.60;99.90;;;;;;5025562;28;20468;-45
2021/10/25 14:34:25;;;;;;;3.97;3.00;;;14.50;99.90;;;;;;5025191;28;20542;-45
2021/10/25 14:36:54;;;;;;;4.97;3.20;;;14.40;99.90;;;;;;5025486;28;20452;-46
2021/10/25 14:39:33;;;;;;;3.63;3.07;;;14.50;99.90;;;;;;5012073;28;20303;-45
2021/10/25 14:42:05;;;;;;;3.80;2.70;;;14.50;99.90;;;;;;5019141;28;21037;-45
2021/10/25 14:44:35;;;;;;;4.17;3.30;;;14.40;99.90;;;;;;5024960;28;20444;-48